sensor_id;sensor_type;location;lat;lon;timestamp;temperature;humidity
12911;DHT22;6523;49.758;6.120;2023-09-19T00:02:14;15.30;99.90
12911;DHT22;6523;49.758;6.120;2023-09-19T00:04:39;15.30;99.90
12911;DHT22;6523;49.758;6.120;2023-09-19T00:07:05;15.30;99.90
12911;DHT22;6523;49.758;6.120;2023-09-19T00:09:31;15.10;99.90
12911;DHT22;6523;49.758;6.120;2023-09-19T00:12:06;15.00;99.90
12911;DHT22;6523;49.758;6.120;2023-09-19T00:14:32;15.10;99.90
12911;DHT22;6523;49.758;6.120;2023-09-19T00:17:01;15.00;99.90
12911;DHT22;6523;49.758;6.120;2023-09-19T00:19:31;15.00;99.90
12911;DHT22;6523;49.758;6.120;2023-09-19T00:21:58;15.10;99.90
12911;DHT22;6523;49.758;6.120;2023-09-19T00:24:23;15.00;99.90
12911;DHT22;6523;49.758;6.120;2023-09-19T00:26:49;15.10;99.90
12911;DHT22;6523;49.758;6.120;2023-09-19T00:29:14;15.00;99.90
12911;DHT22;6523;49.758;6.120;2023-09-19T00:31:43;15.00;99.90
12911;DHT22;6523;49.758;6.120;2023-09-19T00:34:09;15.00;99.90
12911;DHT22;6523;49.758;6.120;2023-09-19T00:36:36;15.00;99.90
12911;DHT22;6523;49.758;6.120;2023-09-19T00:39:05;15.00;99.90
12911;DHT22;6523;49.758;6.120;2023-09-19T00:41:32;14.90;99.90
12911;DHT22;6523;49.758;6.120;2023-09-19T00:43:57;14.90;99.90
12911;DHT22;6523;49.758;6.120;2023-09-19T00:46:24;14.90;99.90
12911;DHT22;6523;49.758;6.120;2023-09-19T00:48:51;14.90;99.90
12911;DHT22;6523;49.758;6.120;2023-09-19T00:51:16;14.90;99.90
12911;DHT22;6523;49.758;6.120;2023-09-19T00:53:46;14.90;99.90
12911;DHT22;6523;49.758;6.120;2023-09-19T00:56:13;14.90;99.90
12911;DHT22;6523;49.758;6.120;2023-09-19T00:58:39;14.90;99.90
12911;DHT22;6523;49.758;6.120;2023-09-19T01:01:05;14.80;99.90
12911;DHT22;6523;49.758;6.120;2023-09-19T01:03:33;14.90;99.90
12911;DHT22;6523;49.758;6.120;2023-09-19T01:06:01;14.90;99.90
12911;DHT22;6523;49.758;6.120;2023-09-19T01:08:28;14.90;99.90
12911;DHT22;6523;49.758;6.120;2023-09-19T01:11:21;14.90;99.90
12911;DHT22;6523;49.758;6.120;2023-09-19T01:13:56;14.80;99.90
12911;DHT22;6523;49.758;6.120;2023-09-19T01:16:38;14.90;99.90
12911;DHT22;6523;49.758;6.120;2023-09-19T01:21:49;15.00;99.90
12911;DHT22;6523;49.758;6.120;2023-09-19T01:24:54;14.90;99.90
12911;DHT22;6523;49.758;6.120;2023-09-19T01:28:07;14.90;99.90
12911;DHT22;6523;49.758;6.120;2023-09-19T01:30:40;15.00;99.90
12911;DHT22;6523;49.758;6.120;2023-09-19T01:33:09;14.90;99.90
12911;DHT22;6523;49.758;6.120;2023-09-19T01:35:38;14.80;99.90
12911;DHT22;6523;49.758;6.120;2023-09-19T01:38:07;14.90;99.90
12911;DHT22;6523;49.758;6.120;2023-09-19T01:40:45;14.80;99.90
12911;DHT22;6523;49.758;6.120;2023-09-19T01:43:29;14.80;99.90
12911;DHT22;6523;49.758;6.120;2023-09-19T01:46:09;14.80;99.90
12911;DHT22;6523;49.758;6.120;2023-09-19T01:51:10;14.80;99.90
12911;DHT22;6523;49.758;6.120;2023-09-19T01:56:08;14.90;99.90
12911;DHT22;6523;49.758;6.120;2023-09-19T01:58:41;14.80;99.90
12911;DHT22;6523;49.758;6.120;2023-09-19T02:01:14;14.80;99.90
12911;DHT22;6523;49.758;6.120;2023-09-19T02:03:42;14.70;99.90
12911;DHT22;6523;49.758;6.120;2023-09-19T02:06:17;14.80;99.90
12911;DHT22;6523;49.758;6.120;2023-09-19T02:08:43;14.80;99.90
12911;DHT22;6523;49.758;6.120;2023-09-19T02:11:13;14.80;99.90
12911;DHT22;6523;49.758;6.120;2023-09-19T02:13:39;14.80;99.90
12911;DHT22;6523;49.758;6.120;2023-09-19T02:16:06;14.70;99.90
12911;DHT22;6523;49.758;6.120;2023-09-19T02:18:32;14.70;99.90
12911;DHT22;6523;49.758;6.120;2023-09-19T02:21:03;14.70;99.90
12911;DHT22;6523;49.758;6.120;2023-09-19T02:23:29;14.60;99.90
12911;DHT22;6523;49.758;6.120;2023-09-19T02:25:58;14.60;99.90
12911;DHT22;6523;49.758;6.120;2023-09-19T02:28:26;14.60;99.90
12911;DHT22;6523;49.758;6.120;2023-09-19T02:30:55;14.60;99.90
12911;DHT22;6523;49.758;6.120;2023-09-19T02:33:21;14.60;99.90
12911;DHT22;6523;49.758;6.120;2023-09-19T02:35:47;14.60;99.90
12911;DHT22;6523;49.758;6.120;2023-09-19T02:38:12;14.50;99.90
12911;DHT22;6523;49.758;6.120;2023-09-19T02:40:40;14.60;99.90
12911;DHT22;6523;49.758;6.120;2023-09-19T02:43:05;14.50;99.90
12911;DHT22;6523;49.758;6.120;2023-09-19T02:45:32;14.50;99.90
12911;DHT22;6523;49.758;6.120;2023-09-19T02:47:57;14.50;99.90
12911;DHT22;6523;49.758;6.120;2023-09-19T02:50:23;14.50;99.90
12911;DHT22;6523;49.758;6.120;2023-09-19T02:52:49;14.40;99.90
12911;DHT22;6523;49.758;6.120;2023-09-19T02:55:18;14.40;99.90
12911;DHT22;6523;49.758;6.120;2023-09-19T02:57:51;14.40;99.90
12911;DHT22;6523;49.758;6.120;2023-09-19T03:00:18;14.40;99.90
12911;DHT22;6523;49.758;6.120;2023-09-19T03:02:48;14.30;99.90
12911;DHT22;6523;49.758;6.120;2023-09-19T03:05:14;14.40;99.90
12911;DHT22;6523;49.758;6.120;2023-09-19T03:07:39;14.40;99.90
12911;DHT22;6523;49.758;6.120;2023-09-19T03:10:08;14.40;99.90
12911;DHT22;6523;49.758;6.120;2023-09-19T03:12:34;14.40;99.90
12911;DHT22;6523;49.758;6.120;2023-09-19T03:15:00;14.40;99.90
12911;DHT22;6523;49.758;6.120;2023-09-19T03:17:25;14.30;99.90
12911;DHT22;6523;49.758;6.120;2023-09-19T03:19:51;14.20;99.90
12911;DHT22;6523;49.758;6.120;2023-09-19T03:22:16;14.20;99.90
12911;DHT22;6523;49.758;6.120;2023-09-19T03:24:43;14.20;99.90
12911;DHT22;6523;49.758;6.120;2023-09-19T03:27:10;14.20;99.90
12911;DHT22;6523;49.758;6.120;2023-09-19T03:29:36;14.20;99.90
12911;DHT22;6523;49.758;6.120;2023-09-19T03:32:01;14.20;99.90
12911;DHT22;6523;49.758;6.120;2023-09-19T03:34:27;14.10;99.90
12911;DHT22;6523;49.758;6.120;2023-09-19T03:36:52;14.20;99.90
12911;DHT22;6523;49.758;6.120;2023-09-19T03:39:18;14.10;99.90
12911;DHT22;6523;49.758;6.120;2023-09-19T03:41:44;14.10;99.90
12911;DHT22;6523;49.758;6.120;2023-09-19T03:44:10;14.10;99.90
12911;DHT22;6523;49.758;6.120;2023-09-19T03:46:35;14.10;99.90
12911;DHT22;6523;49.758;6.120;2023-09-19T03:49:01;14.10;99.90
12911;DHT22;6523;49.758;6.120;2023-09-19T03:51:28;14.00;99.90
12911;DHT22;6523;49.758;6.120;2023-09-19T03:53:53;14.00;99.90
12911;DHT22;6523;49.758;6.120;2023-09-19T03:56:19;13.90;99.90
12911;DHT22;6523;49.758;6.120;2023-09-19T03:58:44;14.00;99.90
12911;DHT22;6523;49.758;6.120;2023-09-19T04:01:10;14.00;99.90
12911;DHT22;6523;49.758;6.120;2023-09-19T04:03:35;14.00;99.90
12911;DHT22;6523;49.758;6.120;2023-09-19T04:06:15;14.00;99.90
12911;DHT22;6523;49.758;6.120;2023-09-19T04:08:41;14.00;99.90
12911;DHT22;6523;49.758;6.120;2023-09-19T04:11:07;14.00;99.90
12911;DHT22;6523;49.758;6.120;2023-09-19T04:13:33;14.00;99.90
12911;DHT22;6523;49.758;6.120;2023-09-19T04:15:58;13.90;99.90
12911;DHT22;6523;49.758;6.120;2023-09-19T04:18:24;14.00;99.90
12911;DHT22;6523;49.758;6.120;2023-09-19T04:20:50;14.00;99.90
12911;DHT22;6523;49.758;6.120;2023-09-19T04:23:16;14.00;99.90
12911;DHT22;6523;49.758;6.120;2023-09-19T04:25:42;13.90;99.90
12911;DHT22;6523;49.758;6.120;2023-09-19T04:28:08;14.00;99.90
12911;DHT22;6523;49.758;6.120;2023-09-19T04:30:36;13.90;99.90
12911;DHT22;6523;49.758;6.120;2023-09-19T04:33:02;13.80;99.90
12911;DHT22;6523;49.758;6.120;2023-09-19T04:35:28;13.80;99.90
12911;DHT22;6523;49.758;6.120;2023-09-19T04:37:57;13.70;99.90
12911;DHT22;6523;49.758;6.120;2023-09-19T04:40:22;13.60;99.90
12911;DHT22;6523;49.758;6.120;2023-09-19T04:42:56;13.70;99.90
12911;DHT22;6523;49.758;6.120;2023-09-19T04:45:25;13.70;99.90
12911;DHT22;6523;49.758;6.120;2023-09-19T04:47:52;13.60;99.90
12911;DHT22;6523;49.758;6.120;2023-09-19T04:50:18;13.60;99.90
12911;DHT22;6523;49.758;6.120;2023-09-19T04:52:44;13.60;99.90
12911;DHT22;6523;49.758;6.120;2023-09-19T04:55:14;13.50;99.90
12911;DHT22;6523;49.758;6.120;2023-09-19T04:57:47;13.50;99.90
12911;DHT22;6523;49.758;6.120;2023-09-19T05:00:14;13.50;99.90
12911;DHT22;6523;49.758;6.120;2023-09-19T05:02:41;13.40;99.90
12911;DHT22;6523;49.758;6.120;2023-09-19T05:05:08;13.40;99.90
12911;DHT22;6523;49.758;6.120;2023-09-19T05:07:34;13.40;99.90
12911;DHT22;6523;49.758;6.120;2023-09-19T05:10:00;13.30;99.90
12911;DHT22;6523;49.758;6.120;2023-09-19T05:12:29;13.30;99.90
12911;DHT22;6523;49.758;6.120;2023-09-19T05:14:55;13.30;99.90
12911;DHT22;6523;49.758;6.120;2023-09-19T05:17:20;13.30;99.90
12911;DHT22;6523;49.758;6.120;2023-09-19T05:19:46;13.30;99.90
12911;DHT22;6523;49.758;6.120;2023-09-19T05:22:12;13.20;99.90
12911;DHT22;6523;49.758;6.120;2023-09-19T05:24:38;13.20;99.90
12911;DHT22;6523;49.758;6.120;2023-09-19T05:27:04;13.20;99.90
12911;DHT22;6523;49.758;6.120;2023-09-19T05:29:30;13.20;99.90
12911;DHT22;6523;49.758;6.120;2023-09-19T05:31:55;13.20;99.90
12911;DHT22;6523;49.758;6.120;2023-09-19T05:34:21;13.10;99.90
12911;DHT22;6523;49.758;6.120;2023-09-19T05:36:46;13.20;99.90
12911;DHT22;6523;49.758;6.120;2023-09-19T05:39:14;13.20;99.90
12911;DHT22;6523;49.758;6.120;2023-09-19T05:41:39;13.10;99.90
12911;DHT22;6523;49.758;6.120;2023-09-19T05:44:05;13.10;99.90
12911;DHT22;6523;49.758;6.120;2023-09-19T05:46:32;13.10;99.90
12911;DHT22;6523;49.758;6.120;2023-09-19T05:48:57;13.10;99.90
12911;DHT22;6523;49.758;6.120;2023-09-19T05:51:23;13.10;99.90
12911;DHT22;6523;49.758;6.120;2023-09-19T05:53:49;13.00;99.90
12911;DHT22;6523;49.758;6.120;2023-09-19T05:56:15;13.10;99.90
12911;DHT22;6523;49.758;6.120;2023-09-19T05:58:41;13.10;99.90
12911;DHT22;6523;49.758;6.120;2023-09-19T06:01:09;13.10;99.90
12911;DHT22;6523;49.758;6.120;2023-09-19T06:03:35;13.20;99.90
12911;DHT22;6523;49.758;6.120;2023-09-19T06:06:01;13.20;99.90
12911;DHT22;6523;49.758;6.120;2023-09-19T06:08:27;13.20;99.90
12911;DHT22;6523;49.758;6.120;2023-09-19T06:10:54;13.20;99.90
12911;DHT22;6523;49.758;6.120;2023-09-19T06:13:19;13.20;99.90
12911;DHT22;6523;49.758;6.120;2023-09-19T06:15:46;13.20;99.90
12911;DHT22;6523;49.758;6.120;2023-09-19T06:18:12;13.20;99.90
12911;DHT22;6523;49.758;6.120;2023-09-19T06:20:48;13.20;99.90
12911;DHT22;6523;49.758;6.120;2023-09-19T06:23:16;13.30;99.90
12911;DHT22;6523;49.758;6.120;2023-09-19T06:25:42;13.20;99.90
12911;DHT22;6523;49.758;6.120;2023-09-19T06:28:11;13.20;99.90
12911;DHT22;6523;49.758;6.120;2023-09-19T06:30:40;13.30;99.90
12911;DHT22;6523;49.758;6.120;2023-09-19T06:33:06;13.30;99.90
12911;DHT22;6523;49.758;6.120;2023-09-19T06:35:33;13.40;99.90
12911;DHT22;6523;49.758;6.120;2023-09-19T06:37:59;13.50;99.90
12911;DHT22;6523;49.758;6.120;2023-09-19T06:40:28;13.50;99.90
12911;DHT22;6523;49.758;6.120;2023-09-19T06:42:56;13.50;99.90
12911;DHT22;6523;49.758;6.120;2023-09-19T06:45:22;13.40;99.90
12911;DHT22;6523;49.758;6.120;2023-09-19T06:47:49;13.40;99.90
12911;DHT22;6523;49.758;6.120;2023-09-19T06:50:16;13.50;99.90
12911;DHT22;6523;49.758;6.120;2023-09-19T06:52:45;13.60;99.90
12911;DHT22;6523;49.758;6.120;2023-09-19T06:55:12;13.60;99.90
12911;DHT22;6523;49.758;6.120;2023-09-19T06:57:39;13.60;99.90
12911;DHT22;6523;49.758;6.120;2023-09-19T07:00:06;13.60;99.90
12911;DHT22;6523;49.758;6.120;2023-09-19T07:02:44;13.60;99.90
12911;DHT22;6523;49.758;6.120;2023-09-19T07:05:10;13.60;99.90
12911;DHT22;6523;49.758;6.120;2023-09-19T07:07:36;13.70;99.90
12911;DHT22;6523;49.758;6.120;2023-09-19T07:10:03;13.70;99.90
12911;DHT22;6523;49.758;6.120;2023-09-19T07:12:31;13.70;99.90
12911;DHT22;6523;49.758;6.120;2023-09-19T07:14:58;13.80;99.90
12911;DHT22;6523;49.758;6.120;2023-09-19T07:17:23;13.80;99.90
12911;DHT22;6523;49.758;6.120;2023-09-19T07:19:49;13.90;99.90
12911;DHT22;6523;49.758;6.120;2023-09-19T07:22:15;13.90;99.90
12911;DHT22;6523;49.758;6.120;2023-09-19T07:24:41;13.90;99.90
12911;DHT22;6523;49.758;6.120;2023-09-19T07:27:07;13.90;99.90
12911;DHT22;6523;49.758;6.120;2023-09-19T07:29:32;14.00;99.90
12911;DHT22;6523;49.758;6.120;2023-09-19T07:31:58;14.10;99.90
12911;DHT22;6523;49.758;6.120;2023-09-19T07:34:23;14.10;99.90
12911;DHT22;6523;49.758;6.120;2023-09-19T07:36:49;14.10;99.90
12911;DHT22;6523;49.758;6.120;2023-09-19T07:39:15;14.10;99.90
12911;DHT22;6523;49.758;6.120;2023-09-19T07:41:41;14.00;99.90
12911;DHT22;6523;49.758;6.120;2023-09-19T07:44:07;14.10;99.90
12911;DHT22;6523;49.758;6.120;2023-09-19T07:46:35;14.20;99.90
12911;DHT22;6523;49.758;6.120;2023-09-19T07:49:00;14.10;99.90
12911;DHT22;6523;49.758;6.120;2023-09-19T07:51:26;14.10;99.90
12911;DHT22;6523;49.758;6.120;2023-09-19T07:53:52;14.10;99.90
12911;DHT22;6523;49.758;6.120;2023-09-19T07:56:18;14.20;99.90
12911;DHT22;6523;49.758;6.120;2023-09-19T07:58:45;14.20;99.90
12911;DHT22;6523;49.758;6.120;2023-09-19T08:01:11;14.10;99.90
12911;DHT22;6523;49.758;6.120;2023-09-19T08:03:39;14.10;99.90
12911;DHT22;6523;49.758;6.120;2023-09-19T08:06:07;14.20;99.90
12911;DHT22;6523;49.758;6.120;2023-09-19T08:08:33;14.30;99.90
12911;DHT22;6523;49.758;6.120;2023-09-19T08:11:06;14.30;99.90
12911;DHT22;6523;49.758;6.120;2023-09-19T08:13:41;14.20;99.90
12911;DHT22;6523;49.758;6.120;2023-09-19T08:16:12;14.20;99.90
12911;DHT22;6523;49.758;6.120;2023-09-19T08:18:38;14.30;99.90
12911;DHT22;6523;49.758;6.120;2023-09-19T08:21:05;14.30;99.90
12911;DHT22;6523;49.758;6.120;2023-09-19T08:23:33;14.30;99.90
12911;DHT22;6523;49.758;6.120;2023-09-19T08:25:58;14.30;99.90
12911;DHT22;6523;49.758;6.120;2023-09-19T08:28:28;14.30;99.90
12911;DHT22;6523;49.758;6.120;2023-09-19T08:30:55;14.40;99.90
12911;DHT22;6523;49.758;6.120;2023-09-19T08:33:21;14.60;99.90
12911;DHT22;6523;49.758;6.120;2023-09-19T08:35:46;14.60;99.90
12911;DHT22;6523;49.758;6.120;2023-09-19T08:38:12;14.50;99.90
12911;DHT22;6523;49.758;6.120;2023-09-19T08:40:39;14.60;99.90
12911;DHT22;6523;49.758;6.120;2023-09-19T08:43:06;14.80;99.90
12911;DHT22;6523;49.758;6.120;2023-09-19T08:45:34;14.80;99.90
12911;DHT22;6523;49.758;6.120;2023-09-19T08:50:57;14.90;99.90
12911;DHT22;6523;49.758;6.120;2023-09-19T08:53:40;14.80;99.90
12911;DHT22;6523;49.758;6.120;2023-09-19T08:56:09;15.00;99.90
12911;DHT22;6523;49.758;6.120;2023-09-19T08:58:59;15.00;99.90
12911;DHT22;6523;49.758;6.120;2023-09-19T09:01:28;15.20;99.90
12911;DHT22;6523;49.758;6.120;2023-09-19T09:03:54;15.10;99.90
12911;DHT22;6523;49.758;6.120;2023-09-19T09:06:21;15.20;99.90
12911;DHT22;6523;49.758;6.120;2023-09-19T09:08:50;15.30;99.90
12911;DHT22;6523;49.758;6.120;2023-09-19T09:11:16;15.30;99.90
12911;DHT22;6523;49.758;6.120;2023-09-19T09:13:46;15.30;99.90
12911;DHT22;6523;49.758;6.120;2023-09-19T09:16:13;15.50;99.90
12911;DHT22;6523;49.758;6.120;2023-09-19T09:18:40;15.40;99.90
12911;DHT22;6523;49.758;6.120;2023-09-19T09:21:06;15.30;99.90
12911;DHT22;6523;49.758;6.120;2023-09-19T09:23:32;15.30;99.90
12911;DHT22;6523;49.758;6.120;2023-09-19T09:25:59;15.80;99.90
12911;DHT22;6523;49.758;6.120;2023-09-19T09:28:29;16.00;99.90
12911;DHT22;6523;49.758;6.120;2023-09-19T09:30:56;15.70;99.90
12911;DHT22;6523;49.758;6.120;2023-09-19T09:33:24;15.70;99.90
12911;DHT22;6523;49.758;6.120;2023-09-19T09:38:24;15.70;99.90
12911;DHT22;6523;49.758;6.120;2023-09-19T09:40:59;15.90;99.90
12911;DHT22;6523;49.758;6.120;2023-09-19T09:46:31;15.80;99.90
12911;DHT22;6523;49.758;6.120;2023-09-19T09:49:25;15.70;99.90
12911;DHT22;6523;49.758;6.120;2023-09-19T09:52:04;16.20;99.90
12911;DHT22;6523;49.758;6.120;2023-09-19T09:54:58;16.50;99.90
12911;DHT22;6523;49.758;6.120;2023-09-19T09:57:25;16.70;99.90
12911;DHT22;6523;49.758;6.120;2023-09-19T09:59:55;17.20;99.90
12911;DHT22;6523;49.758;6.120;2023-09-19T10:02:28;17.40;99.90
12911;DHT22;6523;49.758;6.120;2023-09-19T10:04:58;17.50;99.90
12911;DHT22;6523;49.758;6.120;2023-09-19T10:07:40;17.20;99.90
12911;DHT22;6523;49.758;6.120;2023-09-19T10:10:08;17.10;99.90
12911;DHT22;6523;49.758;6.120;2023-09-19T10:12:43;17.10;99.90
12911;DHT22;6523;49.758;6.120;2023-09-19T10:15:12;17.10;99.90
12911;DHT22;6523;49.758;6.120;2023-09-19T10:17:43;17.60;99.90
12911;DHT22;6523;49.758;6.120;2023-09-19T10:20:15;17.60;99.90
12911;DHT22;6523;49.758;6.120;2023-09-19T10:23:05;17.60;99.90
12911;DHT22;6523;49.758;6.120;2023-09-19T10:25:37;17.70;99.90
12911;DHT22;6523;49.758;6.120;2023-09-19T10:28:02;17.40;99.90
12911;DHT22;6523;49.758;6.120;2023-09-19T10:30:41;17.20;99.90
12911;DHT22;6523;49.758;6.120;2023-09-19T10:33:09;17.10;99.90
12911;DHT22;6523;49.758;6.120;2023-09-19T10:35:38;16.90;99.90
12911;DHT22;6523;49.758;6.120;2023-09-19T10:38:06;17.10;99.90
12911;DHT22;6523;49.758;6.120;2023-09-19T10:40:35;17.70;99.90
12911;DHT22;6523;49.758;6.120;2023-09-19T10:43:03;18.10;99.90
12911;DHT22;6523;49.758;6.120;2023-09-19T10:45:31;18.10;99.90
12911;DHT22;6523;49.758;6.120;2023-09-19T10:47:57;18.00;99.90
12911;DHT22;6523;49.758;6.120;2023-09-19T10:50:23;18.30;99.90
12911;DHT22;6523;49.758;6.120;2023-09-19T10:52:50;17.70;99.90
12911;DHT22;6523;49.758;6.120;2023-09-19T10:55:24;17.70;99.90
12911;DHT22;6523;49.758;6.120;2023-09-19T10:57:50;17.90;99.90
12911;DHT22;6523;49.758;6.120;2023-09-19T11:00:18;18.20;99.90
12911;DHT22;6523;49.758;6.120;2023-09-19T11:05:38;17.40;99.90
12911;DHT22;6523;49.758;6.120;2023-09-19T11:08:07;17.60;99.90
12911;DHT22;6523;49.758;6.120;2023-09-19T11:10:51;17.40;99.90
12911;DHT22;6523;49.758;6.120;2023-09-19T11:13:28;17.90;99.90
12911;DHT22;6523;49.758;6.120;2023-09-19T11:24:28;19.10;99.90
12911;DHT22;6523;49.758;6.120;2023-09-19T11:27:10;19.20;99.90
12911;DHT22;6523;49.758;6.120;2023-09-19T11:29:39;19.30;99.90
12911;DHT22;6523;49.758;6.120;2023-09-19T11:32:05;18.70;99.90
12911;DHT22;6523;49.758;6.120;2023-09-19T11:40:07;19.50;99.90
12911;DHT22;6523;49.758;6.120;2023-09-19T11:42:45;19.90;99.90
12911;DHT22;6523;49.758;6.120;2023-09-19T11:48:18;18.70;99.90
12911;DHT22;6523;49.758;6.120;2023-09-19T11:50:45;18.60;99.90
12911;DHT22;6523;49.758;6.120;2023-09-19T11:53:12;19.00;99.90
12911;DHT22;6523;49.758;6.120;2023-09-19T11:55:41;19.10;99.90
12911;DHT22;6523;49.758;6.120;2023-09-19T11:58:17;18.90;99.90
12911;DHT22;6523;49.758;6.120;2023-09-19T12:00:45;19.30;99.90
12911;DHT22;6523;49.758;6.120;2023-09-19T12:03:12;19.10;99.90
12911;DHT22;6523;49.758;6.120;2023-09-19T12:05:39;19.70;99.90
12911;DHT22;6523;49.758;6.120;2023-09-19T12:08:05;19.30;99.90
12911;DHT22;6523;49.758;6.120;2023-09-19T12:10:47;19.80;99.90
12911;DHT22;6523;49.758;6.120;2023-09-19T12:13:19;20.10;99.90
12911;DHT22;6523;49.758;6.120;2023-09-19T12:15:46;20.40;99.90
12911;DHT22;6523;49.758;6.120;2023-09-19T12:18:33;20.70;99.90
12911;DHT22;6523;49.758;6.120;2023-09-19T12:21:01;20.60;99.90
12911;DHT22;6523;49.758;6.120;2023-09-19T12:23:30;20.20;99.90
12911;DHT22;6523;49.758;6.120;2023-09-19T12:25:55;19.70;99.90
12911;DHT22;6523;49.758;6.120;2023-09-19T12:28:27;19.80;99.90
12911;DHT22;6523;49.758;6.120;2023-09-19T12:30:53;20.60;99.90
12911;DHT22;6523;49.758;6.120;2023-09-19T12:33:23;20.60;99.90
12911;DHT22;6523;49.758;6.120;2023-09-19T12:35:51;20.90;99.90
12911;DHT22;6523;49.758;6.120;2023-09-19T12:38:28;20.70;99.90
12911;DHT22;6523;49.758;6.120;2023-09-19T12:40:57;21.20;99.90
12911;DHT22;6523;49.758;6.120;2023-09-19T12:43:28;21.20;99.90
12911;DHT22;6523;49.758;6.120;2023-09-19T12:45:58;21.00;99.90
12911;DHT22;6523;49.758;6.120;2023-09-19T12:48:25;20.60;99.90
12911;DHT22;6523;49.758;6.120;2023-09-19T12:51:08;20.50;99.90
12911;DHT22;6523;49.758;6.120;2023-09-19T12:53:43;20.60;99.90
12911;DHT22;6523;49.758;6.120;2023-09-19T12:56:10;20.70;99.90
12911;DHT22;6523;49.758;6.120;2023-09-19T12:58:57;19.90;99.90
12911;DHT22;6523;49.758;6.120;2023-09-19T13:01:29;20.00;99.90
12911;DHT22;6523;49.758;6.120;2023-09-19T13:04:17;20.60;99.90
12911;DHT22;6523;49.758;6.120;2023-09-19T13:06:50;20.40;99.90
12911;DHT22;6523;49.758;6.120;2023-09-19T13:09:16;19.80;99.90
12911;DHT22;6523;49.758;6.120;2023-09-19T13:11:43;20.30;99.90
12911;DHT22;6523;49.758;6.120;2023-09-19T13:14:24;20.50;99.90
12911;DHT22;6523;49.758;6.120;2023-09-19T13:19:59;20.90;99.90
12911;DHT22;6523;49.758;6.120;2023-09-19T13:22:43;20.90;99.90
12911;DHT22;6523;49.758;6.120;2023-09-19T13:25:20;20.00;99.90
12911;DHT22;6523;49.758;6.120;2023-09-19T13:30:14;21.10;99.90
12911;DHT22;6523;49.758;6.120;2023-09-19T13:32:41;20.70;99.90
12911;DHT22;6523;49.758;6.120;2023-09-19T13:35:09;20.60;99.90
12911;DHT22;6523;49.758;6.120;2023-09-19T13:37:35;19.80;99.90
12911;DHT22;6523;49.758;6.120;2023-09-19T13:40:07;19.60;99.90
12911;DHT22;6523;49.758;6.120;2023-09-19T13:42:33;19.90;99.90
12911;DHT22;6523;49.758;6.120;2023-09-19T13:44:59;19.70;99.90
12911;DHT22;6523;49.758;6.120;2023-09-19T13:47:25;19.40;99.90
12911;DHT22;6523;49.758;6.120;2023-09-19T13:49:52;19.60;99.90
12911;DHT22;6523;49.758;6.120;2023-09-19T13:52:19;20.00;99.90
12911;DHT22;6523;49.758;6.120;2023-09-19T13:54:44;20.60;99.90
12911;DHT22;6523;49.758;6.120;2023-09-19T13:57:10;20.00;99.90
12911;DHT22;6523;49.758;6.120;2023-09-19T13:59:35;20.20;99.90
12911;DHT22;6523;49.758;6.120;2023-09-19T14:02:02;20.10;99.90
12911;DHT22;6523;49.758;6.120;2023-09-19T14:04:31;20.00;99.90
12911;DHT22;6523;49.758;6.120;2023-09-19T14:06:57;19.90;99.90
12911;DHT22;6523;49.758;6.120;2023-09-19T14:09:23;19.80;99.90
12911;DHT22;6523;49.758;6.120;2023-09-19T14:11:50;19.60;99.90
12911;DHT22;6523;49.758;6.120;2023-09-19T14:14:20;20.70;99.90
12911;DHT22;6523;49.758;6.120;2023-09-19T14:16:47;21.10;99.90
12911;DHT22;6523;49.758;6.120;2023-09-19T14:19:13;20.60;99.90
12911;DHT22;6523;49.758;6.120;2023-09-19T14:21:41;20.10;99.90
12911;DHT22;6523;49.758;6.120;2023-09-19T14:24:07;19.80;99.90
12911;DHT22;6523;49.758;6.120;2023-09-19T14:26:37;20.50;99.90
12911;DHT22;6523;49.758;6.120;2023-09-19T14:29:02;20.50;99.90
12911;DHT22;6523;49.758;6.120;2023-09-19T14:31:28;19.90;99.90
12911;DHT22;6523;49.758;6.120;2023-09-19T14:33:54;20.50;99.90
12911;DHT22;6523;49.758;6.120;2023-09-19T14:36:25;20.70;99.90
12911;DHT22;6523;49.758;6.120;2023-09-19T14:38:53;20.70;99.90
12911;DHT22;6523;49.758;6.120;2023-09-19T14:41:22;21.20;99.90
12911;DHT22;6523;49.758;6.120;2023-09-19T14:43:51;21.70;99.90
12911;DHT22;6523;49.758;6.120;2023-09-19T14:46:16;21.80;99.90
12911;DHT22;6523;49.758;6.120;2023-09-19T14:48:44;21.70;99.90
12911;DHT22;6523;49.758;6.120;2023-09-19T14:51:11;21.40;99.90
12911;DHT22;6523;49.758;6.120;2023-09-19T14:53:37;21.00;99.90
12911;DHT22;6523;49.758;6.120;2023-09-19T14:56:06;20.90;99.90
12911;DHT22;6523;49.758;6.120;2023-09-19T14:58:33;20.60;99.90
12911;DHT22;6523;49.758;6.120;2023-09-19T15:01:06;20.60;99.90
12911;DHT22;6523;49.758;6.120;2023-09-19T15:03:33;21.00;99.90
12911;DHT22;6523;49.758;6.120;2023-09-19T15:06:10;20.20;99.90
12911;DHT22;6523;49.758;6.120;2023-09-19T15:08:45;20.10;99.90
12911;DHT22;6523;49.758;6.120;2023-09-19T15:11:13;21.00;99.90
12911;DHT22;6523;49.758;6.120;2023-09-19T15:13:41;21.20;99.90
12911;DHT22;6523;49.758;6.120;2023-09-19T15:16:08;21.60;99.90
12911;DHT22;6523;49.758;6.120;2023-09-19T15:18:37;21.00;99.90
12911;DHT22;6523;49.758;6.120;2023-09-19T15:21:04;20.60;99.90
12911;DHT22;6523;49.758;6.120;2023-09-19T15:23:30;20.00;99.90
12911;DHT22;6523;49.758;6.120;2023-09-19T15:25:57;20.60;99.90
12911;DHT22;6523;49.758;6.120;2023-09-19T15:28:23;21.00;99.90
12911;DHT22;6523;49.758;6.120;2023-09-19T15:30:58;20.70;99.90
12911;DHT22;6523;49.758;6.120;2023-09-19T15:33:24;20.60;99.90
12911;DHT22;6523;49.758;6.120;2023-09-19T15:35:50;20.50;99.90
12911;DHT22;6523;49.758;6.120;2023-09-19T15:38:15;20.40;99.90
12911;DHT22;6523;49.758;6.120;2023-09-19T15:40:46;21.30;99.90
12911;DHT22;6523;49.758;6.120;2023-09-19T15:43:12;20.50;99.90
12911;DHT22;6523;49.758;6.120;2023-09-19T15:45:38;20.10;99.90
12911;DHT22;6523;49.758;6.120;2023-09-19T15:48:04;19.70;99.90
12911;DHT22;6523;49.758;6.120;2023-09-19T15:50:30;19.70;99.90
12911;DHT22;6523;49.758;6.120;2023-09-19T15:52:55;20.20;99.90
12911;DHT22;6523;49.758;6.120;2023-09-19T15:55:21;19.90;99.90
12911;DHT22;6523;49.758;6.120;2023-09-19T15:57:47;20.30;99.90
12911;DHT22;6523;49.758;6.120;2023-09-19T16:00:13;20.60;99.90
12911;DHT22;6523;49.758;6.120;2023-09-19T16:02:42;20.80;99.90
12911;DHT22;6523;49.758;6.120;2023-09-19T16:05:08;21.10;99.90
12911;DHT22;6523;49.758;6.120;2023-09-19T16:07:35;20.80;99.90
12911;DHT22;6523;49.758;6.120;2023-09-19T16:10:02;20.50;99.90
12911;DHT22;6523;49.758;6.120;2023-09-19T16:12:28;20.40;99.90
12911;DHT22;6523;49.758;6.120;2023-09-19T16:14:55;20.40;99.90
12911;DHT22;6523;49.758;6.120;2023-09-19T16:17:20;19.70;99.90
12911;DHT22;6523;49.758;6.120;2023-09-19T16:19:46;19.40;99.90
12911;DHT22;6523;49.758;6.120;2023-09-19T16:22:12;19.70;99.90
12911;DHT22;6523;49.758;6.120;2023-09-19T16:24:39;19.80;99.90
12911;DHT22;6523;49.758;6.120;2023-09-19T16:27:04;19.60;99.90
12911;DHT22;6523;49.758;6.120;2023-09-19T16:29:31;19.30;99.90
12911;DHT22;6523;49.758;6.120;2023-09-19T16:31:56;19.10;99.90
12911;DHT22;6523;49.758;6.120;2023-09-19T16:34:22;19.00;99.90
12911;DHT22;6523;49.758;6.120;2023-09-19T16:36:48;19.00;99.90